»·PEaware :: ASA989 KGEG-KSEA

ASA989 :: KGEG-KSEA

FLIGHT INFORMATION

Flight Status: Arrived
Operator:
Alaska Airlines
More flights by this operator :: More flights under this callsign
Pilot: Anonymous 15639 (15639)
Aircraft: BOEING 727-200
(B722)
More flights by this aircraft type
Origin: KGEG Spokane Intl
United States
Destination: KSEA Seattle-Tacoma Intl
United States
More flights between these airports :: More routes between these airports
Route: +GEG3 GEG TEMPL GLASR1
File this flight plan on PilotEdge
Remarks:
Altitude:
(Current/Filed)
32,000ft
Speed:
(Current/Filed)
482kts
Departed: 10-Sep-18 11:17 AM
Arrived: 10-Sep-18 12:00 PM
Distance/Time
Traveled:
193nm/0:42
Distance/Time
To Go:
Arrived

Flight Plot

Page will automatically refresh every two minutes.

Flight plan parsing failed; only flown route is shown


Map Options




Map Legend


Flown Route
Filed Route
Departure Airport
Arrival Airport
Navaid (VOR, NDB)
Fix

Horizontal Profiles

Position Reports

Time Latitude Longitude Heading Altitude Ground
Speed
10-Sep-18 10:48 47.623928 -117.535877 1 2363ft 0kts
10-Sep-18 10:49 47.623928 -117.535877 1 2363ft 0kts
10-Sep-18 10:50 47.623928 -117.535877 1 2363ft 0kts
10-Sep-18 10:51 47.623928 -117.535877 1 2363ft 0kts
10-Sep-18 10:52 47.623928 -117.535877 1 2363ft 0kts
10-Sep-18 10:53 47.623928 -117.535877 1 2363ft 0kts
10-Sep-18 10:54 47.623928 -117.535877 1 2363ft 0kts
10-Sep-18 10:55 47.623928 -117.535877 1 2363ft 0kts
10-Sep-18 10:56 47.623928 -117.535877 1 2363ft 0kts
10-Sep-18 10:57 47.623928 -117.535877 1 2363ft 0kts
10-Sep-18 10:58 47.623928 -117.535877 1 2363ft 0kts
10-Sep-18 10:59 47.623928 -117.535877 1 2363ft 0kts
10-Sep-18 11:00 47.623928 -117.535877 1 2363ft 0kts
10-Sep-18 11:01 47.623928 -117.535877 1 2363ft 0kts
10-Sep-18 11:02 47.623928 -117.535877 1 2363ft 0kts
10-Sep-18 11:03 47.623928 -117.535877 1 2363ft 0kts
10-Sep-18 11:04 47.623921 -117.535877 1 2363ft 1kts
10-Sep-18 11:05 47.623329 -117.535911 18 2363ft 2kts
10-Sep-18 11:06 47.623118 -117.536158 51 2363ft 0kts
10-Sep-18 11:07 47.623118 -117.536158 51 2363ft 0kts
10-Sep-18 11:08 47.623118 -117.536158 51 2363ft 0kts
10-Sep-18 11:09 47.623118 -117.536158 51 2363ft 0kts
10-Sep-18 11:10 47.623118 -117.536158 51 2363ft 0kts
10-Sep-18 11:11 47.623118 -117.536158 51 2363ft 0kts
10-Sep-18 11:12 47.623228 -117.535903 74 2363ft 4kts
10-Sep-18 11:13 47.624156 -117.532939 46 2360ft 10kts
10-Sep-18 11:14 47.626571 -117.529319 46 2355ft 10kts
10-Sep-18 11:15 47.629257 -117.525251 45 2343ft 18kts
10-Sep-18 11:16 47.631599 -117.521729 46 2333ft 11kts
10-Sep-18 11:17 47.632024 -117.519653 135 2329ft 1kts
10-Sep-18 11:18 47.631508 -117.518918 137 2328ft 10kts
10-Sep-18 11:19 47.621287 -117.533001 223 2492ft 134kts
10-Sep-18 11:20 47.590882 -117.567418 215 4277ft 155kts
10-Sep-18 11:21 47.562532 -117.618137 285 6392ft 198kts
10-Sep-18 11:22 47.570491 -117.709265 284 8406ft 257kts
10-Sep-18 11:23 47.577202 -117.816806 269 11305ft 270kts
10-Sep-18 11:24 47.580356 -117.932920 269 13700ft 298kts
10-Sep-18 11:25 47.592421 -118.057830 278 16257ft 313kts
10-Sep-18 11:26 47.612750 -118.184129 278 18699ft 318kts
10-Sep-18 11:27 47.628834 -118.312762 269 20712ft 319kts
10-Sep-18 11:28 47.636912 -118.445192 271 22555ft 326kts
10-Sep-18 11:29 47.647158 -118.579539 272 24160ft 331kts
10-Sep-18 11:30 47.657452 -118.714628 271 25577ft 337kts
10-Sep-18 11:31 47.667881 -118.850024 271 27477ft 330kts
10-Sep-18 11:32 47.678459 -118.985674 272 28702ft 338kts
10-Sep-18 11:33 47.688460 -119.114497 272 29812ft 343kts
10-Sep-18 11:34 47.699289 -119.255810 272 30813ft 350kts
10-Sep-18 11:35 47.709967 -119.397432 272 31745ft 355kts
10-Sep-18 11:36 47.720864 -119.544081 272 31966ft 367kts
10-Sep-18 11:37 47.730943 -119.684735 271 31760ft 342kts
10-Sep-18 11:38 47.739190 -119.808555 271 29389ft 350kts
10-Sep-18 11:39 47.748118 -119.936679 271 27064ft 347kts
10-Sep-18 11:40 47.757832 -120.076747 271 25041ft 336kts
10-Sep-18 11:41 47.767159 -120.213019 271 22877ft 331kts
10-Sep-18 11:42 47.775872 -120.350336 271 20309ft 338kts
10-Sep-18 11:43 47.782396 -120.487908 272 18299ft 321kts
10-Sep-18 11:44 47.787022 -120.612800 272 15897ft 304kts
10-Sep-18 11:45 47.793256 -120.740312 276 13883ft 320kts
10-Sep-18 11:46 47.806506 -120.866592 279 13302ft 338kts
10-Sep-18 11:47 47.822083 -121.014299 279 12967ft 388kts
10-Sep-18 11:48 47.840727 -121.177684 280 12585ft 412kts
10-Sep-18 11:49 47.861266 -121.349401 279 12187ft 430kts
10-Sep-18 11:50 47.873378 -121.523361 276 11975ft 415kts
10-Sep-18 11:51 47.883348 -121.676624 275 11952ft 318kts
10-Sep-18 11:52 47.873960 -121.781521 240 11997ft 254kts
10-Sep-18 11:53 47.836289 -121.871109 240 11310ft 265kts
10-Sep-18 11:54 47.798330 -121.961181 240 10100ft 259kts
10-Sep-18 11:55 47.761241 -122.050733 240 8336ft 250kts
10-Sep-18 11:56 47.725850 -122.138157 240 7268ft 245kts
10-Sep-18 11:57 47.692000 -122.223595 240 5622ft 240kts
10-Sep-18 11:58 47.652958 -122.300544 219 4388ft 236kts
10-Sep-18 11:59 47.591066 -122.310224 168 2995ft 244kts
10-Sep-18 12:00 47.528249 -122.310680 182 1690ft 216kts
10-Sep-18 12:01 47.479230 -122.311007 180 792ft 139kts
10-Sep-18 12:02 47.451928 -122.311136 180 433ft 36kts
10-Sep-18 12:03 47.446299 -122.308951 133 402ft 14kts
10-Sep-18 12:04 47.446645 -122.306288 0 405ft 6kts
10-Sep-18 12:05 47.447702 -122.304348 58 410ft 6kts
10-Sep-18 12:06 47.448309 -122.303615 39 413ft 0kts
10-Sep-18 12:07 47.448309 -122.303615 39 413ft 0kts

Navigation Log

Ident Type
Flight plan parsing failed, navigation log unavailable